sensor_id;sensor_type;location;lat;lon;timestamp;P1;durP1;ratioP1;P2;durP2;ratioP2
8415;SDS011;4245;42.120;24.732;2023-07-31T00:02:04;4.47;;;2.33;;
8415;SDS011;4245;42.120;24.732;2023-07-31T00:04:31;5.13;;;2.13;;
8415;SDS011;4245;42.120;24.732;2023-07-31T00:06:58;6.03;;;2.53;;
8415;SDS011;4245;42.120;24.732;2023-07-31T00:09:25;5.07;;;2.20;;
8415;SDS011;4245;42.120;24.732;2023-07-31T00:11:52;2.40;;;2.10;;
8415;SDS011;4245;42.120;24.732;2023-07-31T00:14:20;4.37;;;2.23;;
8415;SDS011;4245;42.120;24.732;2023-07-31T00:16:47;4.40;;;2.70;;
8415;SDS011;4245;42.120;24.732;2023-07-31T00:19:14;13.17;;;2.40;;
8415;SDS011;4245;42.120;24.732;2023-07-31T00:21:41;3.50;;;2.20;;
8415;SDS011;4245;42.120;24.732;2023-07-31T00:24:08;9.70;;;2.53;;
8415;SDS011;4245;42.120;24.732;2023-07-31T00:26:36;4.43;;;2.47;;
8415;SDS011;4245;42.120;24.732;2023-07-31T00:29:03;4.47;;;2.50;;
8415;SDS011;4245;42.120;24.732;2023-07-31T00:31:32;5.87;;;2.70;;
8415;SDS011;4245;42.120;24.732;2023-07-31T00:33:58;6.43;;;2.67;;
8415;SDS011;4245;42.120;24.732;2023-07-31T00:36:25;4.87;;;2.40;;
8415;SDS011;4245;42.120;24.732;2023-07-31T00:38:52;4.37;;;2.60;;
8415;SDS011;4245;42.120;24.732;2023-07-31T00:41:19;3.67;;;2.57;;
8415;SDS011;4245;42.120;24.732;2023-07-31T00:43:46;4.40;;;2.97;;
8415;SDS011;4245;42.120;24.732;2023-07-31T00:46:13;2.80;;;2.50;;
8415;SDS011;4245;42.120;24.732;2023-07-31T00:48:41;4.30;;;2.80;;
8415;SDS011;4245;42.120;24.732;2023-07-31T00:51:09;5.03;;;2.73;;
8415;SDS011;4245;42.120;24.732;2023-07-31T00:53:37;4.53;;;2.70;;
8415;SDS011;4245;42.120;24.732;2023-07-31T00:56:05;4.57;;;2.80;;
8415;SDS011;4245;42.120;24.732;2023-07-31T00:58:32;7.47;;;3.17;;
8415;SDS011;4245;42.120;24.732;2023-07-31T01:00:59;6.40;;;3.63;;
8415;SDS011;4245;42.120;24.732;2023-07-31T01:03:26;5.83;;;3.70;;
8415;SDS011;4245;42.120;24.732;2023-07-31T01:05:56;4.63;;;3.53;;
8415;SDS011;4245;42.120;24.732;2023-07-31T01:08:35;6.17;;;4.20;;
8415;SDS011;4245;42.120;24.732;2023-07-31T01:11:08;7.53;;;4.00;;
8415;SDS011;4245;42.120;24.732;2023-07-31T01:13:42;5.50;;;3.87;;
8415;SDS011;4245;42.120;24.732;2023-07-31T01:16:10;7.17;;;4.37;;
8415;SDS011;4245;42.120;24.732;2023-07-31T01:18:37;5.63;;;3.87;;
8415;SDS011;4245;42.120;24.732;2023-07-31T01:21:11;4.57;;;3.63;;
8415;SDS011;4245;42.120;24.732;2023-07-31T01:26:52;9.00;;;4.27;;
8415;SDS011;4245;42.120;24.732;2023-07-31T01:29:24;4.63;;;4.10;;
8415;SDS011;4245;42.120;24.732;2023-07-31T01:31:59;4.83;;;3.80;;
8415;SDS011;4245;42.120;24.732;2023-07-31T01:34:29;6.57;;;3.90;;
8415;SDS011;4245;42.120;24.732;2023-07-31T01:36:56;5.40;;;3.73;;
8415;SDS011;4245;42.120;24.732;2023-07-31T01:39:24;5.07;;;3.70;;
8415;SDS011;4245;42.120;24.732;2023-07-31T01:41:52;4.70;;;4.00;;
8415;SDS011;4245;42.120;24.732;2023-07-31T01:44:19;5.00;;;3.80;;
8415;SDS011;4245;42.120;24.732;2023-07-31T01:46:46;6.90;;;4.03;;
8415;SDS011;4245;42.120;24.732;2023-07-31T01:49:13;4.63;;;4.13;;
8415;SDS011;4245;42.120;24.732;2023-07-31T01:51:40;5.47;;;4.23;;
8415;SDS011;4245;42.120;24.732;2023-07-31T01:54:07;5.70;;;3.90;;
8415;SDS011;4245;42.120;24.732;2023-07-31T01:56:34;4.90;;;3.97;;
8415;SDS011;4245;42.120;24.732;2023-07-31T01:59:03;5.67;;;4.30;;
8415;SDS011;4245;42.120;24.732;2023-07-31T02:01:29;7.73;;;4.47;;
8415;SDS011;4245;42.120;24.732;2023-07-31T02:03:57;7.73;;;5.23;;
8415;SDS011;4245;42.120;24.732;2023-07-31T02:06:23;6.90;;;5.53;;
8415;SDS011;4245;42.120;24.732;2023-07-31T02:08:50;7.23;;;6.03;;
8415;SDS011;4245;42.120;24.732;2023-07-31T02:11:17;10.00;;;6.80;;
8415;SDS011;4245;42.120;24.732;2023-07-31T02:13:44;9.03;;;5.63;;
8415;SDS011;4245;42.120;24.732;2023-07-31T02:16:15;7.77;;;4.80;;
8415;SDS011;4245;42.120;24.732;2023-07-31T02:18:42;10.23;;;4.00;;
8415;SDS011;4245;42.120;24.732;2023-07-31T02:21:09;5.43;;;4.07;;
8415;SDS011;4245;42.120;24.732;2023-07-31T02:23:36;7.07;;;3.60;;
8415;SDS011;4245;42.120;24.732;2023-07-31T02:26:03;6.73;;;3.93;;
8415;SDS011;4245;42.120;24.732;2023-07-31T02:28:30;13.37;;;4.60;;
8415;SDS011;4245;42.120;24.732;2023-07-31T02:30:57;4.30;;;3.67;;
8415;SDS011;4245;42.120;24.732;2023-07-31T02:33:25;7.53;;;3.57;;
8415;SDS011;4245;42.120;24.732;2023-07-31T02:35:52;5.47;;;3.70;;
8415;SDS011;4245;42.120;24.732;2023-07-31T02:38:19;6.90;;;3.90;;
8415;SDS011;4245;42.120;24.732;2023-07-31T02:40:46;5.60;;;3.70;;
8415;SDS011;4245;42.120;24.732;2023-07-31T02:43:14;8.20;;;4.37;;
8415;SDS011;4245;42.120;24.732;2023-07-31T02:45:41;8.00;;;4.53;;
8415;SDS011;4245;42.120;24.732;2023-07-31T02:48:08;5.47;;;4.00;;
8415;SDS011;4245;42.120;24.732;2023-07-31T02:50:36;4.83;;;4.17;;
8415;SDS011;4245;42.120;24.732;2023-07-31T02:53:03;6.67;;;4.07;;
8415;SDS011;4245;42.120;24.732;2023-07-31T02:55:30;7.70;;;4.23;;
8415;SDS011;4245;42.120;24.732;2023-07-31T02:57:57;7.83;;;4.53;;
8415;SDS011;4245;42.120;24.732;2023-07-31T03:00:24;6.60;;;4.77;;
8415;SDS011;4245;42.120;24.732;2023-07-31T03:02:51;4.87;;;4.47;;
8415;SDS011;4245;42.120;24.732;2023-07-31T03:05:18;7.03;;;5.40;;
8415;SDS011;4245;42.120;24.732;2023-07-31T03:07:47;9.93;;;4.97;;
8415;SDS011;4245;42.120;24.732;2023-07-31T03:10:14;6.17;;;4.70;;
8415;SDS011;4245;42.120;24.732;2023-07-31T03:12:41;7.90;;;4.90;;
8415;SDS011;4245;42.120;24.732;2023-07-31T03:15:08;9.97;;;5.27;;
8415;SDS011;4245;42.120;24.732;2023-07-31T03:17:35;7.63;;;5.70;;
8415;SDS011;4245;42.120;24.732;2023-07-31T03:20:03;7.97;;;5.80;;
8415;SDS011;4245;42.120;24.732;2023-07-31T03:22:30;8.90;;;5.93;;
8415;SDS011;4245;42.120;24.732;2023-07-31T03:24:59;7.57;;;5.93;;
8415;SDS011;4245;42.120;24.732;2023-07-31T03:27:26;7.50;;;6.20;;
8415;SDS011;4245;42.120;24.732;2023-07-31T03:29:53;10.00;;;6.40;;
8415;SDS011;4245;42.120;24.732;2023-07-31T03:32:20;8.33;;;6.53;;
8415;SDS011;4245;42.120;24.732;2023-07-31T03:34:47;6.63;;;6.03;;
8415;SDS011;4245;42.120;24.732;2023-07-31T03:37:14;9.63;;;7.07;;
8415;SDS011;4245;42.120;24.732;2023-07-31T03:39:41;10.57;;;7.90;;
8415;SDS011;4245;42.120;24.732;2023-07-31T03:42:09;8.67;;;7.60;;
8415;SDS011;4245;42.120;24.732;2023-07-31T03:44:36;8.90;;;7.17;;
8415;SDS011;4245;42.120;24.732;2023-07-31T03:47:04;8.67;;;7.10;;
8415;SDS011;4245;42.120;24.732;2023-07-31T03:49:31;10.60;;;6.90;;
8415;SDS011;4245;42.120;24.732;2023-07-31T03:51:58;8.03;;;7.20;;
8415;SDS011;4245;42.120;24.732;2023-07-31T03:54:26;9.00;;;6.83;;
8415;SDS011;4245;42.120;24.732;2023-07-31T03:56:53;10.47;;;6.80;;
8415;SDS011;4245;42.120;24.732;2023-07-31T03:59:21;7.77;;;6.07;;
8415;SDS011;4245;42.120;24.732;2023-07-31T04:01:48;7.20;;;6.13;;
8415;SDS011;4245;42.120;24.732;2023-07-31T04:04:15;7.83;;;6.43;;
8415;SDS011;4245;42.120;24.732;2023-07-31T04:06:42;7.90;;;6.37;;
8415;SDS011;4245;42.120;24.732;2023-07-31T04:09:09;7.43;;;6.67;;
8415;SDS011;4245;42.120;24.732;2023-07-31T04:11:36;9.40;;;6.73;;
8415;SDS011;4245;42.120;24.732;2023-07-31T04:14:04;7.50;;;6.70;;
8415;SDS011;4245;42.120;24.732;2023-07-31T04:16:32;8.73;;;6.60;;
8415;SDS011;4245;42.120;24.732;2023-07-31T04:18:59;6.63;;;5.93;;
8415;SDS011;4245;42.120;24.732;2023-07-31T04:21:27;6.47;;;5.70;;
8415;SDS011;4245;42.120;24.732;2023-07-31T04:23:54;9.97;;;6.17;;
8415;SDS011;4245;42.120;24.732;2023-07-31T04:26:23;6.90;;;6.20;;
8415;SDS011;4245;42.120;24.732;2023-07-31T04:28:50;11.20;;;6.83;;
8415;SDS011;4245;42.120;24.732;2023-07-31T04:31:17;8.20;;;6.33;;
8415;SDS011;4245;42.120;24.732;2023-07-31T04:33:45;7.37;;;6.40;;
8415;SDS011;4245;42.120;24.732;2023-07-31T04:36:12;7.03;;;6.27;;
8415;SDS011;4245;42.120;24.732;2023-07-31T04:38:39;6.90;;;6.20;;
8415;SDS011;4245;42.120;24.732;2023-07-31T04:41:07;9.43;;;6.40;;
8415;SDS011;4245;42.120;24.732;2023-07-31T04:43:34;9.83;;;6.33;;
8415;SDS011;4245;42.120;24.732;2023-07-31T04:46:04;9.70;;;6.03;;
8415;SDS011;4245;42.120;24.732;2023-07-31T04:48:31;7.43;;;6.33;;
8415;SDS011;4245;42.120;24.732;2023-07-31T04:50:59;7.83;;;6.13;;
8415;SDS011;4245;42.120;24.732;2023-07-31T04:53:26;8.63;;;6.47;;
8415;SDS011;4245;42.120;24.732;2023-07-31T04:55:53;7.40;;;5.97;;
8415;SDS011;4245;42.120;24.732;2023-07-31T04:58:20;10.13;;;6.43;;
8415;SDS011;4245;42.120;24.732;2023-07-31T05:00:47;6.43;;;5.80;;
8415;SDS011;4245;42.120;24.732;2023-07-31T05:03:14;7.00;;;5.53;;
8415;SDS011;4245;42.120;24.732;2023-07-31T05:05:41;11.67;;;5.80;;
8415;SDS011;4245;42.120;24.732;2023-07-31T05:08:09;9.87;;;7.10;;
8415;SDS011;4245;42.120;24.732;2023-07-31T05:10:36;7.43;;;5.93;;
8415;SDS011;4245;42.120;24.732;2023-07-31T05:13:03;8.33;;;6.47;;
8415;SDS011;4245;42.120;24.732;2023-07-31T05:15:30;8.07;;;5.50;;
8415;SDS011;4245;42.120;24.732;2023-07-31T05:17:57;8.57;;;6.23;;
8415;SDS011;4245;42.120;24.732;2023-07-31T05:20:24;6.60;;;5.80;;
8415;SDS011;4245;42.120;24.732;2023-07-31T05:22:52;6.87;;;5.70;;
8415;SDS011;4245;42.120;24.732;2023-07-31T05:25:21;10.43;;;6.73;;
8415;SDS011;4245;42.120;24.732;2023-07-31T05:27:48;7.90;;;6.53;;
8415;SDS011;4245;42.120;24.732;2023-07-31T05:30:15;10.73;;;7.97;;
8415;SDS011;4245;42.120;24.732;2023-07-31T05:32:42;13.93;;;11.47;;
8415;SDS011;4245;42.120;24.732;2023-07-31T05:35:08;15.57;;;10.67;;
8415;SDS011;4245;42.120;24.732;2023-07-31T05:37:35;14.60;;;12.50;;
8415;SDS011;4245;42.120;24.732;2023-07-31T05:40:03;10.40;;;9.37;;
8415;SDS011;4245;42.120;24.732;2023-07-31T05:42:32;8.07;;;7.20;;
8415;SDS011;4245;42.120;24.732;2023-07-31T05:44:59;7.03;;;6.20;;
8415;SDS011;4245;42.120;24.732;2023-07-31T05:47:26;6.20;;;5.70;;
8415;SDS011;4245;42.120;24.732;2023-07-31T05:49:53;7.00;;;6.30;;
8415;SDS011;4245;42.120;24.732;2023-07-31T05:52:20;7.57;;;5.47;;
8415;SDS011;4245;42.120;24.732;2023-07-31T05:54:47;6.67;;;5.33;;
8415;SDS011;4245;42.120;24.732;2023-07-31T05:57:14;6.27;;;5.60;;
8415;SDS011;4245;42.120;24.732;2023-07-31T05:59:43;6.90;;;6.20;;
8415;SDS011;4245;42.120;24.732;2023-07-31T06:02:10;9.27;;;7.17;;
8415;SDS011;4245;42.120;24.732;2023-07-31T06:04:36;10.73;;;7.13;;
8415;SDS011;4245;42.120;24.732;2023-07-31T06:07:04;8.67;;;6.77;;
8415;SDS011;4245;42.120;24.732;2023-07-31T06:09:31;7.50;;;6.73;;
8415;SDS011;4245;42.120;24.732;2023-07-31T06:11:58;8.00;;;7.10;;
8415;SDS011;4245;42.120;24.732;2023-07-31T06:14:25;9.03;;;8.00;;
8415;SDS011;4245;42.120;24.732;2023-07-31T06:16:53;8.67;;;7.87;;
8415;SDS011;4245;42.120;24.732;2023-07-31T06:19:20;8.90;;;8.00;;
8415;SDS011;4245;42.120;24.732;2023-07-31T06:21:47;9.13;;;7.80;;
8415;SDS011;4245;42.120;24.732;2023-07-31T06:24:14;9.67;;;8.23;;
8415;SDS011;4245;42.120;24.732;2023-07-31T06:26:45;9.00;;;8.10;;
8415;SDS011;4245;42.120;24.732;2023-07-31T06:29:12;10.87;;;9.40;;
8415;SDS011;4245;42.120;24.732;2023-07-31T06:31:40;10.00;;;9.00;;
8415;SDS011;4245;42.120;24.732;2023-07-31T06:34:08;9.50;;;8.57;;
8415;SDS011;4245;42.120;24.732;2023-07-31T06:36:36;9.70;;;8.80;;
8415;SDS011;4245;42.120;24.732;2023-07-31T06:39:03;9.63;;;8.63;;
8415;SDS011;4245;42.120;24.732;2023-07-31T06:41:30;8.77;;;7.53;;
8415;SDS011;4245;42.120;24.732;2023-07-31T06:43:57;10.00;;;9.00;;
8415;SDS011;4245;42.120;24.732;2023-07-31T06:46:24;11.57;;;8.57;;
8415;SDS011;4245;42.120;24.732;2023-07-31T06:48:50;10.53;;;9.13;;
8415;SDS011;4245;42.120;24.732;2023-07-31T06:51:19;10.30;;;9.23;;
8415;SDS011;4245;42.120;24.732;2023-07-31T06:53:46;9.40;;;8.50;;
8415;SDS011;4245;42.120;24.732;2023-07-31T06:56:13;13.30;;;9.43;;
8415;SDS011;4245;42.120;24.732;2023-07-31T06:58:40;9.33;;;8.23;;
8415;SDS011;4245;42.120;24.732;2023-07-31T07:01:08;10.57;;;9.45;;
8415;SDS011;4245;42.120;24.732;2023-07-31T07:03:35;11.77;;;9.10;;
8415;SDS011;4245;42.120;24.732;2023-07-31T07:06:02;11.80;;;9.30;;
8415;SDS011;4245;42.120;24.732;2023-07-31T07:08:30;9.63;;;8.73;;
8415;SDS011;4245;42.120;24.732;2023-07-31T07:10:57;10.82;;;9.73;;
8415;SDS011;4245;42.120;24.732;2023-07-31T07:13:24;12.63;;;10.27;;
8415;SDS011;4245;42.120;24.732;2023-07-31T07:15:51;11.48;;;10.35;;
8415;SDS011;4245;42.120;24.732;2023-07-31T07:18:18;11.55;;;10.38;;
8415;SDS011;4245;42.120;24.732;2023-07-31T07:20:46;12.77;;;10.20;;
8415;SDS011;4245;42.120;24.732;2023-07-31T07:23:14;13.23;;;10.15;;
8415;SDS011;4245;42.120;24.732;2023-07-31T07:25:43;14.35;;;11.50;;
8415;SDS011;4245;42.120;24.732;2023-07-31T07:28:10;12.68;;;11.38;;
8415;SDS011;4245;42.120;24.732;2023-07-31T07:30:37;12.43;;;11.18;;
8415;SDS011;4245;42.120;24.732;2023-07-31T07:33:04;12.73;;;11.38;;
8415;SDS011;4245;42.120;24.732;2023-07-31T07:35:32;14.68;;;12.25;;
8415;SDS011;4245;42.120;24.732;2023-07-31T07:37:59;13.25;;;11.80;;
8415;SDS011;4245;42.120;24.732;2023-07-31T07:40:27;13.95;;;12.23;;
8415;SDS011;4245;42.120;24.732;2023-07-31T07:42:55;14.70;;;12.57;;
8415;SDS011;4245;42.120;24.732;2023-07-31T07:45:22;13.68;;;12.30;;
8415;SDS011;4245;42.120;24.732;2023-07-31T07:47:49;14.57;;;12.73;;
8415;SDS011;4245;42.120;24.732;2023-07-31T07:50:16;16.08;;;13.27;;
8415;SDS011;4245;42.120;24.732;2023-07-31T07:52:43;16.63;;;13.90;;
8415;SDS011;4245;42.120;24.732;2023-07-31T07:55:10;16.63;;;13.95;;
8415;SDS011;4245;42.120;24.732;2023-07-31T07:57:37;16.05;;;13.52;;
8415;SDS011;4245;42.120;24.732;2023-07-31T08:00:06;16.58;;;13.65;;
8415;SDS011;4245;42.120;24.732;2023-07-31T08:02:35;14.40;;;12.77;;
8415;SDS011;4245;42.120;24.732;2023-07-31T08:05:02;13.65;;;12.25;;
8415;SDS011;4245;42.120;24.732;2023-07-31T08:07:29;13.63;;;12.18;;
8415;SDS011;4245;42.120;24.732;2023-07-31T08:09:56;14.25;;;12.73;;
8415;SDS011;4245;42.120;24.732;2023-07-31T08:12:23;13.70;;;12.23;;
8415;SDS011;4245;42.120;24.732;2023-07-31T08:14:50;14.38;;;12.88;;
8415;SDS011;4245;42.120;24.732;2023-07-31T08:17:19;15.02;;;13.35;;
8415;SDS011;4245;42.120;24.732;2023-07-31T08:19:46;16.90;;;15.20;;
8415;SDS011;4245;42.120;24.732;2023-07-31T08:22:13;16.05;;;14.45;;
8415;SDS011;4245;42.120;24.732;2023-07-31T08:24:40;15.68;;;14.18;;
8415;SDS011;4245;42.120;24.732;2023-07-31T08:27:07;15.07;;;13.63;;
8415;SDS011;4245;42.120;24.732;2023-07-31T08:29:34;14.68;;;13.10;;
8415;SDS011;4245;42.120;24.732;2023-07-31T08:32:00;16.48;;;14.38;;
8415;SDS011;4245;42.120;24.732;2023-07-31T08:34:29;14.88;;;13.30;;
8415;SDS011;4245;42.120;24.732;2023-07-31T08:36:56;14.40;;;13.00;;
8415;SDS011;4245;42.120;24.732;2023-07-31T08:39:23;15.07;;;13.50;;
8415;SDS011;4245;42.120;24.732;2023-07-31T08:41:50;13.65;;;12.25;;
8415;SDS011;4245;42.120;24.732;2023-07-31T08:44:17;14.63;;;13.15;;
8415;SDS011;4245;42.120;24.732;2023-07-31T08:46:44;12.82;;;11.63;;
8415;SDS011;4245;42.120;24.732;2023-07-31T08:49:12;12.82;;;11.52;;
8415;SDS011;4245;42.120;24.732;2023-07-31T08:51:41;13.77;;;10.82;;
8415;SDS011;4245;42.120;24.732;2023-07-31T08:54:09;13.55;;;11.48;;
8415;SDS011;4245;42.120;24.732;2023-07-31T08:56:36;13.40;;;12.00;;
8415;SDS011;4245;42.120;24.732;2023-07-31T08:59:03;13.73;;;12.43;;
8415;SDS011;4245;42.120;24.732;2023-07-31T09:01:32;11.90;;;10.75;;
8415;SDS011;4245;42.120;24.732;2023-07-31T09:04:04;12.63;;;11.43;;
8415;SDS011;4245;42.120;24.732;2023-07-31T09:06:32;13.70;;;12.32;;
8415;SDS011;4245;42.120;24.732;2023-07-31T09:09:02;13.57;;;12.27;;
8415;SDS011;4245;42.120;24.732;2023-07-31T09:11:29;14.07;;;12.70;;
8415;SDS011;4245;42.120;24.732;2023-07-31T09:13:57;13.70;;;12.50;;
8415;SDS011;4245;42.120;24.732;2023-07-31T09:16:27;13.93;;;11.55;;
8415;SDS011;4245;42.120;24.732;2023-07-31T09:18:57;12.80;;;11.60;;
8415;SDS011;4245;42.120;24.732;2023-07-31T09:21:26;12.95;;;11.75;;
8415;SDS011;4245;42.120;24.732;2023-07-31T09:23:54;13.68;;;12.25;;
8415;SDS011;4245;42.120;24.732;2023-07-31T09:26:32;14.07;;;12.70;;
8415;SDS011;4245;42.120;24.732;2023-07-31T09:29:00;15.13;;;13.45;;
8415;SDS011;4245;42.120;24.732;2023-07-31T09:31:33;13.02;;;11.73;;
8415;SDS011;4245;42.120;24.732;2023-07-31T09:34:05;13.80;;;12.45;;
8415;SDS011;4245;42.120;24.732;2023-07-31T09:36:33;11.93;;;10.77;;
8415;SDS011;4245;42.120;24.732;2023-07-31T09:39:07;13.05;;;11.93;;
8415;SDS011;4245;42.120;24.732;2023-07-31T09:41:37;14.00;;;12.55;;
8415;SDS011;4245;42.120;24.732;2023-07-31T09:44:05;11.63;;;10.52;;
8415;SDS011;4245;42.120;24.732;2023-07-31T09:46:34;13.55;;;12.27;;
8415;SDS011;4245;42.120;24.732;2023-07-31T09:49:06;14.50;;;11.93;;
8415;SDS011;4245;42.120;24.732;2023-07-31T09:51:35;11.68;;;10.50;;
8415;SDS011;4245;42.120;24.732;2023-07-31T09:54:03;12.85;;;11.65;;
8415;SDS011;4245;42.120;24.732;2023-07-31T09:56:37;11.98;;;10.90;;
8415;SDS011;4245;42.120;24.732;2023-07-31T09:59:07;10.77;;;9.77;;
8415;SDS011;4245;42.120;24.732;2023-07-31T10:01:37;11.25;;;10.07;;
8415;SDS011;4245;42.120;24.732;2023-07-31T10:04:04;11.60;;;10.45;;
8415;SDS011;4245;42.120;24.732;2023-07-31T10:06:33;10.57;;;9.57;;
8415;SDS011;4245;42.120;24.732;2023-07-31T10:09:01;10.40;;;9.40;;
8415;SDS011;4245;42.120;24.732;2023-07-31T10:11:29;10.45;;;9.32;;
8415;SDS011;4245;42.120;24.732;2023-07-31T10:14:02;9.88;;;8.98;;
8415;SDS011;4245;42.120;24.732;2023-07-31T10:16:29;9.38;;;8.50;;
8415;SDS011;4245;42.120;24.732;2023-07-31T10:18:57;9.50;;;8.63;;
8415;SDS011;4245;42.120;24.732;2023-07-31T10:21:25;10.00;;;9.10;;
8415;SDS011;4245;42.120;24.732;2023-07-31T10:23:52;9.90;;;9.02;;
8415;SDS011;4245;42.120;24.732;2023-07-31T10:26:21;9.48;;;8.57;;
8415;SDS011;4245;42.120;24.732;2023-07-31T10:28:51;9.57;;;8.70;;
8415;SDS011;4245;42.120;24.732;2023-07-31T10:31:20;10.10;;;9.02;;
8415;SDS011;4245;42.120;24.732;2023-07-31T10:33:48;9.75;;;8.85;;
8415;SDS011;4245;42.120;24.732;2023-07-31T10:36:17;9.57;;;8.65;;
8415;SDS011;4245;42.120;24.732;2023-07-31T10:38:45;10.13;;;9.32;;
8415;SDS011;4245;42.120;24.732;2023-07-31T10:41:12;10.88;;;8.95;;
8415;SDS011;4245;42.120;24.732;2023-07-31T10:43:39;10.25;;;9.15;;
8415;SDS011;4245;42.120;24.732;2023-07-31T10:46:06;10.02;;;9.02;;
8415;SDS011;4245;42.120;24.732;2023-07-31T10:48:36;9.15;;;8.25;;
8415;SDS011;4245;42.120;24.732;2023-07-31T10:51:07;9.25;;;8.43;;
8415;SDS011;4245;42.120;24.732;2023-07-31T10:53:35;9.00;;;8.05;;
8415;SDS011;4245;42.120;24.732;2023-07-31T10:56:03;8.93;;;8.00;;
8415;SDS011;4245;42.120;24.732;2023-07-31T10:58:31;8.48;;;7.75;;
8415;SDS011;4245;42.120;24.732;2023-07-31T11:01:00;8.13;;;7.32;;
8415;SDS011;4245;42.120;24.732;2023-07-31T11:03:41;7.43;;;6.82;;
8415;SDS011;4245;42.120;24.732;2023-07-31T11:06:10;8.30;;;7.50;;
8415;SDS011;4245;42.120;24.732;2023-07-31T11:08:41;9.30;;;8.30;;
8415;SDS011;4245;42.120;24.732;2023-07-31T11:11:10;8.60;;;7.80;;
8415;SDS011;4245;42.120;24.732;2023-07-31T11:13:42;7.07;;;6.47;;
8415;SDS011;4245;42.120;24.732;2023-07-31T11:16:11;9.55;;;7.10;;
8415;SDS011;4245;42.120;24.732;2023-07-31T11:18:39;7.90;;;6.70;;
8415;SDS011;4245;42.120;24.732;2023-07-31T11:21:08;8.52;;;6.22;;
8415;SDS011;4245;42.120;24.732;2023-07-31T11:23:39;6.78;;;6.25;;
8415;SDS011;4245;42.120;24.732;2023-07-31T11:26:07;11.63;;;6.70;;
8415;SDS011;4245;42.120;24.732;2023-07-31T11:28:34;12.07;;;7.63;;
8415;SDS011;4245;42.120;24.732;2023-07-31T11:31:02;10.35;;;7.38;;
8415;SDS011;4245;42.120;24.732;2023-07-31T11:33:29;8.88;;;7.65;;
8415;SDS011;4245;42.120;24.732;2023-07-31T11:35:56;8.68;;;7.68;;
8415;SDS011;4245;42.120;24.732;2023-07-31T11:38:25;10.10;;;7.60;;
8415;SDS011;4245;42.120;24.732;2023-07-31T11:40:53;14.00;;;7.85;;
8415;SDS011;4245;42.120;24.732;2023-07-31T11:43:21;9.75;;;7.82;;
8415;SDS011;4245;42.120;24.732;2023-07-31T11:45:50;13.02;;;7.25;;
8415;SDS011;4245;42.120;24.732;2023-07-31T11:48:19;8.07;;;7.18;;
8415;SDS011;4245;42.120;24.732;2023-07-31T11:50:47;8.20;;;7.40;;
8415;SDS011;4245;42.120;24.732;2023-07-31T11:53:16;8.65;;;7.18;;
8415;SDS011;4245;42.120;24.732;2023-07-31T11:55:46;8.55;;;7.47;;
8415;SDS011;4245;42.120;24.732;2023-07-31T11:58:15;8.23;;;7.43;;
8415;SDS011;4245;42.120;24.732;2023-07-31T12:00:43;8.55;;;7.20;;
8415;SDS011;4245;42.120;24.732;2023-07-31T12:03:10;8.77;;;7.97;;
8415;SDS011;4245;42.120;24.732;2023-07-31T12:05:38;8.88;;;7.93;;
8415;SDS011;4245;42.120;24.732;2023-07-31T12:08:08;8.55;;;7.72;;
8415;SDS011;4245;42.120;24.732;2023-07-31T12:10:37;9.23;;;7.90;;
8415;SDS011;4245;42.120;24.732;2023-07-31T12:13:07;8.10;;;7.40;;
8415;SDS011;4245;42.120;24.732;2023-07-31T12:15:39;9.65;;;7.80;;
8415;SDS011;4245;42.120;24.732;2023-07-31T12:18:08;8.88;;;8.07;;
8415;SDS011;4245;42.120;24.732;2023-07-31T12:20:39;9.02;;;8.15;;
8415;SDS011;4245;42.120;24.732;2023-07-31T12:23:12;10.88;;;9.32;;
8415;SDS011;4245;42.120;24.732;2023-07-31T12:25:40;10.02;;;9.02;;
8415;SDS011;4245;42.120;24.732;2023-07-31T12:28:09;9.27;;;8.45;;
8415;SDS011;4245;42.120;24.732;2023-07-31T12:30:38;10.30;;;8.40;;
8415;SDS011;4245;42.120;24.732;2023-07-31T12:33:06;11.57;;;8.50;;
8415;SDS011;4245;42.120;24.732;2023-07-31T12:35:40;8.55;;;7.85;;
8415;SDS011;4245;42.120;24.732;2023-07-31T12:38:08;8.43;;;7.72;;
8415;SDS011;4245;42.120;24.732;2023-07-31T12:40:36;8.68;;;7.88;;
8415;SDS011;4245;42.120;24.732;2023-07-31T12:43:04;10.25;;;7.32;;
8415;SDS011;4245;42.120;24.732;2023-07-31T12:45:32;8.65;;;7.10;;
8415;SDS011;4245;42.120;24.732;2023-07-31T12:47:59;8.13;;;5.93;;
8415;SDS011;4245;42.120;24.732;2023-07-31T12:50:27;6.00;;;5.50;;
8415;SDS011;4245;42.120;24.732;2023-07-31T12:52:54;6.82;;;5.68;;
8415;SDS011;4245;42.120;24.732;2023-07-31T12:55:21;7.72;;;5.82;;
8415;SDS011;4245;42.120;24.732;2023-07-31T12:57:48;11.68;;;6.68;;
8415;SDS011;4245;42.120;24.732;2023-07-31T13:00:15;8.65;;;6.25;;
8415;SDS011;4245;42.120;24.732;2023-07-31T13:02:44;6.88;;;6.28;;
8415;SDS011;4245;42.120;24.732;2023-07-31T13:05:11;7.55;;;6.65;;
8415;SDS011;4245;42.120;24.732;2023-07-31T13:07:38;6.28;;;5.68;;
8415;SDS011;4245;42.120;24.732;2023-07-31T13:10:06;8.68;;;5.75;;
8415;SDS011;4245;42.120;24.732;2023-07-31T13:12:34;10.57;;;7.63;;
8415;SDS011;4245;42.120;24.732;2023-07-31T13:15:01;10.88;;;7.72;;
8415;SDS011;4245;42.120;24.732;2023-07-31T13:17:27;9.77;;;8.25;;
8415;SDS011;4245;42.120;24.732;2023-07-31T13:19:56;11.25;;;8.63;;
8415;SDS011;4245;42.120;24.732;2023-07-31T13:22:23;10.02;;;9.07;;
8415;SDS011;4245;42.120;24.732;2023-07-31T13:24:50;9.23;;;8.32;;
8415;SDS011;4245;42.120;24.732;2023-07-31T13:27:17;9.20;;;8.40;;
8415;SDS011;4245;42.120;24.732;2023-07-31T13:29:46;10.70;;;9.60;;
8415;SDS011;4245;42.120;24.732;2023-07-31T13:32:14;14.73;;;9.10;;
8415;SDS011;4245;42.120;24.732;2023-07-31T13:34:41;10.05;;;8.55;;
8415;SDS011;4245;42.120;24.732;2023-07-31T13:37:10;11.55;;;8.40;;
8415;SDS011;4245;42.120;24.732;2023-07-31T13:39:37;8.52;;;7.70;;
8415;SDS011;4245;42.120;24.732;2023-07-31T13:42:04;8.25;;;7.45;;
8415;SDS011;4245;42.120;24.732;2023-07-31T13:44:33;8.65;;;7.72;;
8415;SDS011;4245;42.120;24.732;2023-07-31T13:47:00;9.23;;;7.75;;
8415;SDS011;4245;42.120;24.732;2023-07-31T13:49:27;8.65;;;7.28;;
8415;SDS011;4245;42.120;24.732;2023-07-31T13:51:55;9.40;;;7.95;;
8415;SDS011;4245;42.120;24.732;2023-07-31T13:54:23;10.45;;;9.02;;
8415;SDS011;4245;42.120;24.732;2023-07-31T13:56:51;9.35;;;8.13;;
8415;SDS011;4245;42.120;24.732;2023-07-31T13:59:18;9.25;;;7.13;;
8415;SDS011;4245;42.120;24.732;2023-07-31T14:01:45;8.35;;;7.53;;
8415;SDS011;4245;42.120;24.732;2023-07-31T14:04:12;6.90;;;6.30;;
8415;SDS011;4245;42.120;24.732;2023-07-31T14:06:39;7.72;;;6.95;;
8415;SDS011;4245;42.120;24.732;2023-07-31T14:09:06;8.27;;;7.47;;
8415;SDS011;4245;42.120;24.732;2023-07-31T14:11:35;8.98;;;8.00;;
8415;SDS011;4245;42.120;24.732;2023-07-31T14:14:02;7.88;;;7.07;;
8415;SDS011;4245;42.120;24.732;2023-07-31T14:16:29;7.50;;;6.70;;
8415;SDS011;4245;42.120;24.732;2023-07-31T14:18:56;11.02;;;7.13;;
8415;SDS011;4245;42.120;24.732;2023-07-31T14:21:24;8.38;;;7.57;;
8415;SDS011;4245;42.120;24.732;2023-07-31T14:23:51;7.80;;;7.10;;
8415;SDS011;4245;42.120;24.732;2023-07-31T14:26:18;9.48;;;8.18;;
8415;SDS011;4245;42.120;24.732;2023-07-31T14:28:46;7.25;;;6.63;;
8415;SDS011;4245;42.120;24.732;2023-07-31T14:31:13;8.45;;;7.40;;
8415;SDS011;4245;42.120;24.732;2023-07-31T14:33:41;7.78;;;7.07;;
8415;SDS011;4245;42.120;24.732;2023-07-31T14:36:08;6.90;;;6.03;;
8415;SDS011;4245;42.120;24.732;2023-07-31T14:38:35;9.38;;;6.25;;
8415;SDS011;4245;42.120;24.732;2023-07-31T14:41:01;7.85;;;7.05;;
8415;SDS011;4245;42.120;24.732;2023-07-31T14:43:28;10.15;;;6.95;;
8415;SDS011;4245;42.120;24.732;2023-07-31T14:45:57;8.00;;;7.20;;
8415;SDS011;4245;42.120;24.732;2023-07-31T14:48:25;8.88;;;7.55;;
8415;SDS011;4245;42.120;24.732;2023-07-31T14:50:52;8.75;;;7.82;;
8415;SDS011;4245;42.120;24.732;2023-07-31T14:53:19;8.32;;;7.40;;
8415;SDS011;4245;42.120;24.732;2023-07-31T14:55:46;10.52;;;7.05;;
8415;SDS011;4245;42.120;24.732;2023-07-31T14:58:13;7.75;;;6.63;;
8415;SDS011;4245;42.120;24.732;2023-07-31T15:00:40;8.20;;;7.28;;